Terminal Aerodrome Forecast
Issued by NWS Bismarck, ND

Home | Current Version | Previous Version | Text Only | Print | Product List | Glossary Off
Versions: 1 2 3 4 5 6 7 8 9 10 11 12 13 14 15 16 17 18

490
FTUS43 KBIS 170537
TAFBIS
TAF
KBIS 170537Z 1706/1806 29005KT P6SM VCSH SCT050 BKN110
     FM170800 29005KT P6SM BKN100
     FM172100 35005KT P6SM BKN200=

USA.gov is the U.S. government's official web portal to all federal, state and local government web resources and services.